createdAt,value
2022-10-01T00:01:38.512Z,285.08
2022-10-01T00:04:26.928Z,285.95
2022-10-01T00:07:15.327Z,278.33
2022-10-01T00:10:05.708Z,282.33
2022-10-01T00:12:53.619Z,306.10
2022-10-01T00:15:42.493Z,269.63
2022-10-01T00:18:30.948Z,293.00
2022-10-01T00:21:21.165Z,280.73
2022-10-01T00:24:10.789Z,301.80
2022-10-01T00:27:00.406Z,270.60
2022-10-01T00:29:48.585Z,273.60
2022-10-01T00:32:36.538Z,285.10
2022-10-01T00:35:24.582Z,284.50
2022-10-01T00:38:15.220Z,294.63
2022-10-01T00:41:03.875Z,292.93
2022-10-01T00:43:58.071Z,282.80
2022-10-01T00:46:47.462Z,291.37
2022-10-01T00:49:38.402Z,309.87
2022-10-01T00:52:31.648Z,290.90
2022-10-01T00:55:23.538Z,306.60
2022-10-01T00:58:14.921Z,295.57
2022-10-01T01:01:04.949Z,275.37
2022-10-01T01:03:53.012Z,290.83
2022-10-01T01:06:41.131Z,297.80
2022-10-01T01:09:31.664Z,295.87
2022-10-01T01:12:34.750Z,307.30
2022-10-01T01:15:29.562Z,270.25
2022-10-01T01:18:24.012Z,283.47
2022-10-01T01:21:25.646Z,281.52
2022-10-01T01:24:28.397Z,278.57
2022-10-01T01:27:35.252Z,290.30
2022-10-01T01:30:24.633Z,283.97
2022-10-01T01:33:18.215Z,290.30
2022-10-01T01:36:11.830Z,281.10
2022-10-01T01:39:03.825Z,261.15
2022-10-01T01:42:07.143Z,272.77
2022-10-01T01:44:58.973Z,279.47
2022-10-01T01:47:49.295Z,281.33
2022-10-01T01:50:44.468Z,268.27
2022-10-01T01:53:32.750Z,295.23
2022-10-01T01:56:20.670Z,266.90
2022-10-01T01:59:08.926Z,291.53
2022-10-01T02:01:58.130Z,289.67
2022-10-01T02:04:54.565Z,304.67
2022-10-01T02:08:03.860Z,296.03
2022-10-01T02:11:12.582Z,283.03
2022-10-01T02:14:12.164Z,290.17
2022-10-01T02:17:06.888Z,285.38
2022-10-01T02:20:00.116Z,270.63
2022-10-01T02:22:52.924Z,301.33
2022-10-01T02:25:45.797Z,297.70
2022-10-01T02:28:36.729Z,288.53
2022-10-01T02:31:25.196Z,273.70
2022-10-01T02:34:19.974Z,285.23
2022-10-01T02:37:12.469Z,298.63
2022-10-01T02:40:03.621Z,291.57
2022-10-01T02:42:58.283Z,274.67
2022-10-01T02:45:52.332Z,283.27
2022-10-01T02:48:40.383Z,286.07
2022-10-01T02:51:36.387Z,278.77
2022-10-01T02:54:30.273Z,285.30
2022-10-01T02:57:27.253Z,272.10
2022-10-01T03:00:21.175Z,258.10
2022-10-01T03:03:09.142Z,279.67
2022-10-01T03:05:56.994Z,267.63
2022-10-01T03:08:44.880Z,277.73
2022-10-01T03:11:34.396Z,290.47
2022-10-01T03:14:23.706Z,286.60
2022-10-01T03:17:12.576Z,290.87
2022-10-01T03:20:00.525Z,287.10
2022-10-01T03:22:48.705Z,295.33
2022-10-01T03:25:36.566Z,270.97
2022-10-01T03:28:26.379Z,291.50
2022-10-01T03:31:14.361Z,294.13
2022-10-01T03:34:02.236Z,281.23
2022-10-01T03:36:51.815Z,279.30
2022-10-01T03:39:39.869Z,292.60
2022-10-01T03:42:27.772Z,294.17
2022-10-01T03:45:17.145Z,293.70
2022-10-01T03:48:05.112Z,261.60
2022-10-01T03:50:54.610Z,295.17
2022-10-01T03:53:42.535Z,275.90
2022-10-01T03:56:30.437Z,273.70
2022-10-01T03:59:19.282Z,289.98
2022-10-01T04:02:08.756Z,276.07
2022-10-01T04:04:56.878Z,256.63
2022-10-01T04:07:45.037Z,264.47
2022-10-01T04:10:32.969Z,262.10
2022-10-01T04:13:20.916Z,277.03
2022-10-01T04:16:09.575Z,293.15
2022-10-01T04:18:58.882Z,258.73
2022-10-01T04:21:46.795Z,270.50
2022-10-01T04:24:34.688Z,274.50
2022-10-01T04:27:22.607Z,281.37
2022-10-01T04:30:11.436Z,289.03
2022-10-01T04:32:59.708Z,288.13
2022-10-01T04:35:48.960Z,291.67
2022-10-01T04:38:36.980Z,276.90
2022-10-01T04:41:25.430Z,269.53
2022-10-01T04:44:13.366Z,283.03
2022-10-01T04:47:01.615Z,299.77
2022-10-01T04:49:49.792Z,283.67
2022-10-01T04:52:39.071Z,282.73
2022-10-01T04:55:27.158Z,277.27
2022-10-01T04:58:15.049Z,277.90
2022-10-01T05:01:03.031Z,290.77
2022-10-01T05:03:51.124Z,280.83
2022-10-01T05:06:39.163Z,293.57
2022-10-01T05:09:28.408Z,294.30
2022-10-01T05:12:17.145Z,298.23
2022-10-01T05:15:08.389Z,303.07
2022-10-01T05:17:56.358Z,299.43
2022-10-01T05:20:44.293Z,314.87
2022-10-01T05:23:32.807Z,299.50
2022-10-01T05:26:23.054Z,319.40
2022-10-01T05:29:11.259Z,312.33
2022-10-01T05:31:59.399Z,296.43
2022-10-01T05:34:52.612Z,314.63
2022-10-01T05:37:41.439Z,310.27
2022-10-01T05:40:30.779Z,301.60
2022-10-01T05:43:20.285Z,315.67
2022-10-01T05:46:10.279Z,306.60
2022-10-01T05:48:58.608Z,315.77
2022-10-01T05:51:46.791Z,303.33
2022-10-01T05:54:34.676Z,311.57
2022-10-01T05:57:22.737Z,309.57
2022-10-01T06:00:14.641Z,312.63
2022-10-01T06:03:04.833Z,321.40
2022-10-01T06:05:34.362Z,326.67
2022-10-01T06:08:05.475Z,337.73
2022-10-01T06:10:33.112Z,343.60
2022-10-01T06:13:01.949Z,322.70
2022-10-01T06:15:34.178Z,352.40
2022-10-01T06:18:03.709Z,325.70
2022-10-01T06:20:31.381Z,335.37
2022-10-01T06:22:59.440Z,346.30
2022-10-01T06:25:28.945Z,324.97
2022-10-01T06:27:58.781Z,320.23
2022-10-01T06:30:27.892Z,342.77
2022-10-01T06:33:00.629Z,331.13
2022-10-01T06:35:28.239Z,350.53
2022-10-01T06:37:55.844Z,326.73
2022-10-01T06:40:23.469Z,332.50
2022-10-01T06:42:56.084Z,346.90
2022-10-01T06:45:24.630Z,337.87
2022-10-01T06:47:55.297Z,321.87
2022-10-01T06:50:25.192Z,326.73
2022-10-01T06:52:52.501Z,322.07
2022-10-01T06:55:21.637Z,339.43
2022-10-01T06:57:50.235Z,321.57
2022-10-01T07:00:18.022Z,348.20
2022-10-01T07:02:45.728Z,324.80
2022-10-01T07:05:13.429Z,347.27
2022-10-01T07:07:43.147Z,352.07
2022-10-01T07:10:12.478Z,318.87
2022-10-01T07:12:40.403Z,370.03
2022-10-01T07:15:10.072Z,328.33
2022-10-01T07:17:44.731Z,340.27
2022-10-01T07:20:12.711Z,337.10
2022-10-01T07:22:41.698Z,336.63
2022-10-01T07:25:09.814Z,338.77
2022-10-01T07:27:38.354Z,332.80
2022-10-01T07:30:08.144Z,349.43
2022-10-01T07:32:36.160Z,345.20
2022-10-01T07:35:05.094Z,340.60
2022-10-01T07:37:32.807Z,340.97
2022-10-01T07:40:07.187Z,363.27
2022-10-01T07:42:35.281Z,337.57
2022-10-01T07:45:04.220Z,339.17
2022-10-01T07:47:32.254Z,354.30
2022-10-01T07:49:59.841Z,362.87
2022-10-01T07:52:27.463Z,360.33
2022-10-01T07:54:55.054Z,349.27
2022-10-01T07:57:24.044Z,352.23
2022-10-01T07:59:55.645Z,366.73
2022-10-01T08:02:23.769Z,366.07
2022-10-01T08:05:09.346Z,346.43
2022-10-01T08:07:37.066Z,341.63
2022-10-01T08:10:05.568Z,361.47
2022-10-01T08:12:34.628Z,379.50
2022-10-01T08:15:03.153Z,359.87
2022-10-01T08:17:30.946Z,361.43
2022-10-01T08:19:58.547Z,354.60
2022-10-01T08:22:26.313Z,360.10
2022-10-01T08:24:54.052Z,369.77
2022-10-01T08:27:21.655Z,361.97
2022-10-01T08:29:50.644Z,379.00
2022-10-01T08:32:18.385Z,362.93
2022-10-01T08:34:46.591Z,348.60
2022-10-01T08:37:14.321Z,361.50
2022-10-01T08:39:41.988Z,374.17
2022-10-01T08:42:23.210Z,377.03
2022-10-01T08:44:53.711Z,407.17
2022-10-01T08:47:29.041Z,349.03
2022-10-01T08:50:01.191Z,371.47
2022-10-01T08:52:31.567Z,395.20
2022-10-01T08:55:04.246Z,384.47
2022-10-01T08:57:38.628Z,360.87
2022-10-01T09:00:14.425Z,380.20
2022-10-01T09:02:44.721Z,408.60
2022-10-01T09:05:22.394Z,404.73
2022-10-01T09:08:15.168Z,358.77
2022-10-01T09:10:46.319Z,377.33
2022-10-01T09:13:49.326Z,382.30
2022-10-01T09:16:25.686Z,377.63
2022-10-01T09:19:07.019Z,356.80
2022-10-01T09:21:51.616Z,380.43
2022-10-01T09:24:38.164Z,393.30
2022-10-01T09:27:13.541Z,371.50
2022-10-01T09:29:46.475Z,386.83
2022-10-01T09:32:20.060Z,362.43
2022-10-01T09:34:49.077Z,366.53
2022-10-01T09:37:27.468Z,389.73
2022-10-01T09:40:08.117Z,402.83
2022-10-01T09:42:35.771Z,372.87
2022-10-01T09:45:03.420Z,372.73
2022-10-01T09:47:34.630Z,398.40
2022-10-01T09:50:05.599Z,405.30
2022-10-01T09:52:36.155Z,377.70
2022-10-01T09:55:08.092Z,368.07
2022-10-01T09:57:39.839Z,373.60
2022-10-01T10:00:11.756Z,375.27
2022-10-01T10:02:48.427Z,389.53
2022-10-01T10:05:18.995Z,392.40
2022-10-01T10:07:48.589Z,379.77
2022-10-01T10:10:25.598Z,381.00
2022-10-01T10:12:57.817Z,373.40
2022-10-01T10:15:27.135Z,379.43
2022-10-01T10:17:57.348Z,389.00
2022-10-01T10:20:30.479Z,382.27
2022-10-01T10:23:08.868Z,382.50
2022-10-01T10:25:36.538Z,392.83
2022-10-01T10:28:04.995Z,395.45
2022-10-01T10:30:34.466Z,382.47
2022-10-01T10:33:08.125Z,395.27
2022-10-01T10:35:37.008Z,380.00
2022-10-01T10:38:05.055Z,396.52
2022-10-01T10:40:40.797Z,390.77
2022-10-01T10:43:20.707Z,396.77
2022-10-01T10:45:49.326Z,393.83
2022-10-01T10:48:19.999Z,385.88
2022-10-01T10:50:48.108Z,403.05
2022-10-01T10:53:22.263Z,384.87
2022-10-01T10:56:00.193Z,394.65
2022-10-01T10:58:29.743Z,397.85
2022-10-01T11:01:00.929Z,412.65
2022-10-01T11:03:33.955Z,377.08
2022-10-01T11:06:11.175Z,404.20
2022-10-01T11:08:40.058Z,414.35
2022-10-01T11:11:20.041Z,388.73
2022-10-01T11:14:05.818Z,396.60
2022-10-01T11:16:45.452Z,389.73
2022-10-01T11:19:34.609Z,392.88
2022-10-01T11:22:23.300Z,402.38
2022-10-01T11:25:01.920Z,361.85
2022-10-01T11:27:37.401Z,407.00
2022-10-01T11:30:11.085Z,399.30
2022-10-01T11:32:45.354Z,423.23
2022-10-01T11:35:29.683Z,413.67
2022-10-01T11:38:17.688Z,393.73
2022-10-01T11:40:50.129Z,379.20
2022-10-01T11:43:22.786Z,393.83
2022-10-01T11:45:56.237Z,401.27
2022-10-01T11:48:30.169Z,387.05
2022-10-01T11:51:07.657Z,385.50
2022-10-01T11:53:40.591Z,396.40
2022-10-01T11:56:30.801Z,387.90
2022-10-01T11:59:05.749Z,389.25
2022-10-01T12:01:39.282Z,399.92
2022-10-01T12:04:18.288Z,394.08
2022-10-01T12:06:55.279Z,389.65
2022-10-01T12:09:27.686Z,376.45
2022-10-01T12:12:02.136Z,399.88
2022-10-01T12:14:36.876Z,408.38
2022-10-01T12:17:13.115Z,401.27
2022-10-01T12:19:46.359Z,385.40
2022-10-01T12:22:24.301Z,378.38
2022-10-01T12:24:53.346Z,409.85
2022-10-01T12:27:35.346Z,407.98
2022-10-01T12:30:05.761Z,397.92
2022-10-01T12:32:47.551Z,387.95
2022-10-01T12:35:35.333Z,399.60
2022-10-01T12:38:16.355Z,393.23
2022-10-01T12:40:48.092Z,384.77
2022-10-01T12:43:31.293Z,413.73
2022-10-01T12:46:07.343Z,398.80
2022-10-01T12:48:44.695Z,401.70
2022-10-01T12:51:33.043Z,417.17
2022-10-01T12:54:15.316Z,387.83
2022-10-01T12:56:49.603Z,391.27
2022-10-01T12:59:41.025Z,396.10
2022-10-01T13:02:26.669Z,413.50
2022-10-01T13:05:07.924Z,413.38
2022-10-01T13:07:47.150Z,418.95
2022-10-01T13:10:33.107Z,399.77
2022-10-01T13:13:07.714Z,419.15
2022-10-01T13:15:38.136Z,399.90
2022-10-01T13:18:22.742Z,409.55
2022-10-01T13:21:01.106Z,400.80
2022-10-01T13:23:35.947Z,406.55
2022-10-01T13:26:10.401Z,422.27
2022-10-01T13:28:53.479Z,423.80
2022-10-01T13:31:34.783Z,446.40
2022-10-01T13:34:03.173Z,431.88
2022-10-01T13:36:34.014Z,445.20
2022-10-01T13:39:02.230Z,404.30
2022-10-01T13:41:34.738Z,435.08
2022-10-01T13:44:21.197Z,433.65
2022-10-01T13:46:53.394Z,412.40
2022-10-01T13:49:24.099Z,425.67
2022-10-01T13:51:52.846Z,414.33
2022-10-01T13:54:27.695Z,429.17
2022-10-01T13:56:56.737Z,425.70
2022-10-01T13:59:32.827Z,436.38
2022-10-01T14:02:01.241Z,423.70
2022-10-01T14:04:37.107Z,450.75
2022-10-01T14:07:15.683Z,435.52
2022-10-01T14:09:46.621Z,443.70
2022-10-01T14:12:38.428Z,461.38
2022-10-01T14:15:34.153Z,461.00
2022-10-01T14:18:05.202Z,448.33
2022-10-01T14:20:44.820Z,454.67
2022-10-01T14:23:16.804Z,416.20
2022-10-01T14:25:54.008Z,415.75
2022-10-01T14:28:49.364Z,450.85
2022-10-01T14:31:25.054Z,429.15
2022-10-01T14:34:21.600Z,462.85
2022-10-01T14:36:51.869Z,451.33
2022-10-01T14:39:21.431Z,451.10
2022-10-01T14:41:50.726Z,444.10
2022-10-01T14:44:26.713Z,485.48
2022-10-01T14:46:56.611Z,475.33
2022-10-01T14:49:26.711Z,469.40
2022-10-01T14:51:59.643Z,481.50
2022-10-01T14:54:28.248Z,481.08
2022-10-01T14:56:56.316Z,445.75
2022-10-01T14:59:35.247Z,472.92
2022-10-01T15:02:04.960Z,468.60
2022-10-01T15:04:32.651Z,478.98
2022-10-01T15:07:16.038Z,461.20
2022-10-01T15:09:44.164Z,459.55
2022-10-01T15:12:13.806Z,462.10
2022-10-01T15:14:43.752Z,458.63
2022-10-01T15:17:17.276Z,459.00
2022-10-01T15:19:47.190Z,474.27
2022-10-01T15:22:16.298Z,441.30
2022-10-01T15:24:46.556Z,463.00
2022-10-01T15:27:18.294Z,452.73
2022-10-01T15:29:56.104Z,470.38
2022-10-01T15:32:26.072Z,450.65
2022-10-01T15:34:55.681Z,473.42
2022-10-01T15:37:28.519Z,450.00
2022-10-01T15:39:56.978Z,438.10
2022-10-01T15:42:28.121Z,439.73
2022-10-01T15:45:23.251Z,474.35
2022-10-01T15:47:52.132Z,446.13
2022-10-01T15:50:21.950Z,432.20
2022-10-01T15:52:54.354Z,444.65
2022-10-01T15:55:28.426Z,458.38
2022-10-01T15:58:02.591Z,468.25
2022-10-01T16:00:34.973Z,425.42
2022-10-01T16:03:04.100Z,432.90
2022-10-01T16:05:37.655Z,437.65
2022-10-01T16:08:06.144Z,416.00
2022-10-01T16:10:36.727Z,441.13
2022-10-01T16:13:38.020Z,439.83
2022-10-01T16:16:37.522Z,425.38
2022-10-01T16:19:22.613Z,414.75
2022-10-01T16:22:15.635Z,450.15
2022-10-01T16:24:44.900Z,450.90
2022-10-01T16:27:15.987Z,433.50
2022-10-01T16:29:44.153Z,472.70
2022-10-01T16:32:15.624Z,440.42
2022-10-01T16:34:43.329Z,455.55
2022-10-01T16:37:10.993Z,461.17
2022-10-01T16:39:38.661Z,480.95
2022-10-01T16:42:23.515Z,434.10
2022-10-01T16:44:52.590Z,429.35
2022-10-01T16:47:21.532Z,451.13
2022-10-01T16:49:52.457Z,422.67
2022-10-01T16:52:20.050Z,448.15
2022-10-01T16:54:48.025Z,450.42
2022-10-01T16:57:16.440Z,422.77
2022-10-01T16:59:44.190Z,437.27
2022-10-01T17:02:13.479Z,441.15
2022-10-01T17:04:42.525Z,443.38
2022-10-01T17:07:10.124Z,453.98
2022-10-01T17:09:37.709Z,428.30
2022-10-01T17:12:05.540Z,419.60
2022-10-01T17:14:33.210Z,411.05
2022-10-01T17:17:00.778Z,446.10
2022-10-01T17:19:28.372Z,430.52
2022-10-01T17:21:57.321Z,413.25
2022-10-01T17:24:26.753Z,388.42
2022-10-01T17:26:54.360Z,465.15
2022-10-01T17:29:21.978Z,441.45
2022-10-01T17:31:53.060Z,428.30
2022-10-01T17:34:21.176Z,435.65
2022-10-01T17:36:48.828Z,437.55
2022-10-01T17:39:17.763Z,436.67
2022-10-01T17:41:45.351Z,434.23
2022-10-01T17:44:13.063Z,439.02
2022-10-01T17:46:40.753Z,441.60
2022-10-01T17:49:08.768Z,445.73
2022-10-01T17:51:45.481Z,441.40
2022-10-01T17:54:13.108Z,433.20
2022-10-01T17:56:44.010Z,467.60
2022-10-01T17:59:11.623Z,409.85
2022-10-01T18:01:40.036Z,440.60
2022-10-01T18:04:08.079Z,446.92
2022-10-01T18:06:36.140Z,447.13
2022-10-01T18:09:04.358Z,440.27
2022-10-01T18:11:32.423Z,418.88
2022-10-01T18:14:01.429Z,433.80
2022-10-01T18:16:29.251Z,461.90
2022-10-01T18:21:46.169Z,433.27
2022-10-01T18:24:15.164Z,416.13
2022-10-01T18:26:42.849Z,430.90
2022-10-01T18:29:17.218Z,436.90
2022-10-01T18:31:45.178Z,449.20
2022-10-01T18:34:21.403Z,434.00
2022-10-01T18:36:55.837Z,454.65
2022-10-01T18:39:32.504Z,433.05
2022-10-01T18:42:00.945Z,439.17
2022-10-01T18:44:30.050Z,445.55
2022-10-01T18:47:08.920Z,448.77
2022-10-01T18:49:53.589Z,444.80
2022-10-01T18:52:31.744Z,420.75
2022-10-01T18:55:21.561Z,435.45
2022-10-01T18:58:02.085Z,414.35
2022-10-01T19:00:43.261Z,433.98
2022-10-01T19:03:42.790Z,447.80
2022-10-01T19:06:37.426Z,410.38
2022-10-01T19:09:19.633Z,428.25
2022-10-01T19:11:59.338Z,448.65
2022-10-01T19:14:55.790Z,463.77
2022-10-01T19:17:43.431Z,411.85
2022-10-01T19:20:29.924Z,419.00
2022-10-01T19:23:10.512Z,425.90
2022-10-01T19:25:44.386Z,438.90
2022-10-01T19:28:26.397Z,437.13
2022-10-01T19:31:05.482Z,436.80
2022-10-01T19:33:38.232Z,431.60
2022-10-01T19:36:06.711Z,450.10
2022-10-01T19:38:38.219Z,418.48
2022-10-01T19:41:14.717Z,454.30
2022-10-01T19:43:48.859Z,440.38
2022-10-01T19:46:22.015Z,447.27
2022-10-01T19:48:55.676Z,454.90
2022-10-01T19:51:29.235Z,433.95
2022-10-01T19:54:00.992Z,411.75
2022-10-01T19:56:31.104Z,429.48
2022-10-01T19:59:01.350Z,458.80
2022-10-01T20:01:39.397Z,442.20
2022-10-01T20:04:34.832Z,417.90
2022-10-01T20:07:28.760Z,433.60
2022-10-01T20:10:21.956Z,425.80
2022-10-01T20:13:29.190Z,449.02
2022-10-01T20:16:26.156Z,425.10
2022-10-01T20:19:21.209Z,473.15
2022-10-01T20:22:19.890Z,452.00
2022-10-01T20:25:16.525Z,458.27
2022-10-01T20:28:13.664Z,433.52
2022-10-01T20:31:14.043Z,436.67
2022-10-01T20:34:10.033Z,420.02
2022-10-01T20:37:08.732Z,444.75
2022-10-01T20:40:03.554Z,457.45
2022-10-01T20:42:57.053Z,422.05
2022-10-01T20:45:46.591Z,466.52
2022-10-01T20:48:37.685Z,436.55
2022-10-01T20:51:33.406Z,456.30
2022-10-01T20:54:27.126Z,458.02
2022-10-01T20:57:22.092Z,450.52
2022-10-01T21:00:19.525Z,415.50
2022-10-01T21:03:17.851Z,458.30
2022-10-01T21:06:12.907Z,458.90
2022-10-01T21:09:04.302Z,460.80
2022-10-01T21:11:59.054Z,460.63
2022-10-01T21:14:53.605Z,450.33
2022-10-01T21:17:48.308Z,431.20
2022-10-01T21:20:45.128Z,443.52
2022-10-01T21:23:45.212Z,447.05
2022-10-01T21:26:42.167Z,433.27
2022-10-01T21:29:50.685Z,427.70
2022-10-01T21:33:02.790Z,439.88
2022-10-01T21:35:55.536Z,443.40
2022-10-01T21:38:48.912Z,441.80
2022-10-01T21:41:51.985Z,445.40
2022-10-01T21:45:07.482Z,430.52
2022-10-01T21:48:13.409Z,451.25
2022-10-01T21:51:09.705Z,440.95
2022-10-01T21:54:19.084Z,454.77
2022-10-01T21:57:20.993Z,441.40
2022-10-01T22:00:18.238Z,441.00
2022-10-01T22:03:14.812Z,447.38
2022-10-01T22:06:12.002Z,451.23
2022-10-01T22:09:12.727Z,421.92
2022-10-01T22:12:02.925Z,453.33
2022-10-01T22:14:52.572Z,451.27
2022-10-01T22:17:40.614Z,450.05
2022-10-01T22:20:34.590Z,427.58
2022-10-01T22:23:22.661Z,467.90
2022-10-01T22:26:17.786Z,443.85
2022-10-01T22:29:11.986Z,441.77
2022-10-01T22:32:03.929Z,451.20
2022-10-01T22:34:57.513Z,466.17
2022-10-01T22:37:51.795Z,442.30
2022-10-01T22:40:46.063Z,433.13
2022-10-01T22:43:36.206Z,398.98
2022-10-01T22:46:43.963Z,430.15
2022-10-01T22:49:44.986Z,419.27
2022-10-01T22:52:41.502Z,407.15
2022-10-01T22:55:40.410Z,434.48
2022-10-01T22:58:46.922Z,437.15
2022-10-01T23:01:44.863Z,452.50
2022-10-01T23:04:42.775Z,430.50
2022-10-01T23:07:39.599Z,448.05
2022-10-01T23:10:36.454Z,419.42
2022-10-01T23:13:34.777Z,438.25
2022-10-01T23:16:33.480Z,436.23
2022-10-01T23:19:37.568Z,430.95
2022-10-01T23:22:40.786Z,444.20
2022-10-01T23:25:44.914Z,427.30
2022-10-01T23:28:45.973Z,455.65
2022-10-01T23:31:40.404Z,438.00
2022-10-01T23:34:42.389Z,427.42
2022-10-01T23:38:04.685Z,443.55
2022-10-01T23:40:55.575Z,426.95
2022-10-01T23:43:46.768Z,449.15
2022-10-01T23:46:36.553Z,433.55
2022-10-01T23:49:28.678Z,468.45
2022-10-01T23:52:25.899Z,461.77
2022-10-01T23:55:36.670Z,438.38
2022-10-01T23:58:30.082Z,430.90
